sensor_id;sensor_type;location;lat;lon;timestamp;pressure;altitude;pressure_sealevel;temperature;humidity
50103;BME280;35993;52.604;10.078;2023-08-24T00:01:10;101434.56;;;17.98;100.00
50103;BME280;35993;52.604;10.078;2023-08-24T00:03:40;101437.78;;;17.95;100.00
50103;BME280;35993;52.604;10.078;2023-08-24T00:06:05;101440.31;;;17.97;100.00
50103;BME280;35993;52.604;10.078;2023-08-24T00:08:32;101441.13;;;17.97;100.00
50103;BME280;35993;52.604;10.078;2023-08-24T00:10:58;101447.56;;;17.91;100.00
50103;BME280;35993;52.604;10.078;2023-08-24T00:13:24;101438.03;;;17.94;100.00
50103;BME280;35993;52.604;10.078;2023-08-24T00:15:50;101439.84;;;17.88;100.00
50103;BME280;35993;52.604;10.078;2023-08-24T00:18:16;101436.25;;;17.88;100.00
50103;BME280;35993;52.604;10.078;2023-08-24T00:20:43;101434.34;;;17.88;100.00
50103;BME280;35993;52.604;10.078;2023-08-24T00:23:09;101436.03;;;17.89;100.00
50103;BME280;35993;52.604;10.078;2023-08-24T00:25:35;101433.50;;;17.88;100.00
50103;BME280;35993;52.604;10.078;2023-08-24T00:28:01;101431.69;;;17.76;100.00
50103;BME280;35993;52.604;10.078;2023-08-24T00:30:26;101432.91;;;17.68;100.00
50103;BME280;35993;52.604;10.078;2023-08-24T00:32:52;101434.38;;;17.59;100.00
50103;BME280;35993;52.604;10.078;2023-08-24T00:35:19;101429.66;;;17.55;100.00
50103;BME280;35993;52.604;10.078;2023-08-24T00:37:44;101426.81;;;17.49;100.00
50103;BME280;35993;52.604;10.078;2023-08-24T00:40:10;101435.88;;;17.50;100.00
50103;BME280;35993;52.604;10.078;2023-08-24T00:42:39;101429.22;;;17.46;100.00
50103;BME280;35993;52.604;10.078;2023-08-24T00:45:06;101431.59;;;17.42;100.00
50103;BME280;35993;52.604;10.078;2023-08-24T00:47:33;101428.59;;;17.44;100.00
50103;BME280;35993;52.604;10.078;2023-08-24T00:50:00;101424.06;;;17.49;100.00
50103;BME280;35993;52.604;10.078;2023-08-24T00:52:27;101422.13;;;17.50;100.00
50103;BME280;35993;52.604;10.078;2023-08-24T00:54:54;101423.38;;;17.42;100.00
50103;BME280;35993;52.604;10.078;2023-08-24T00:57:21;101421.44;;;17.43;100.00
50103;BME280;35993;52.604;10.078;2023-08-24T00:59:47;101422.56;;;17.42;100.00
50103;BME280;35993;52.604;10.078;2023-08-24T01:02:13;101433.91;;;17.33;100.00
50103;BME280;35993;52.604;10.078;2023-08-24T01:04:41;101425.13;;;17.19;100.00
50103;BME280;35993;52.604;10.078;2023-08-24T01:07:06;101427.31;;;17.17;100.00
50103;BME280;35993;52.604;10.078;2023-08-24T01:09:33;101417.69;;;16.91;100.00
50103;BME280;35993;52.604;10.078;2023-08-24T01:15:14;101421.72;;;17.12;100.00
50103;BME280;35993;52.604;10.078;2023-08-24T01:17:47;101421.94;;;17.11;100.00
50103;BME280;35993;52.604;10.078;2023-08-24T01:20:15;101424.22;;;17.02;100.00
50103;BME280;35993;52.604;10.078;2023-08-24T01:22:53;101415.06;;;16.96;100.00
50103;BME280;35993;52.604;10.078;2023-08-24T01:25:26;101418.25;;;17.05;100.00
50103;BME280;35993;52.604;10.078;2023-08-24T01:28:00;101419.19;;;17.11;100.00
50103;BME280;35993;52.604;10.078;2023-08-24T01:30:28;101429.59;;;17.09;100.00
50103;BME280;35993;52.604;10.078;2023-08-24T01:32:56;101431.84;;;17.12;100.00
50103;BME280;35993;52.604;10.078;2023-08-24T01:35:22;101429.50;;;17.03;100.00
50103;BME280;35993;52.604;10.078;2023-08-24T01:37:52;101432.94;;;16.87;100.00
50103;BME280;35993;52.604;10.078;2023-08-24T01:40:27;101429.03;;;16.83;100.00
50103;BME280;35993;52.604;10.078;2023-08-24T01:43:07;101424.38;;;16.83;100.00
50103;BME280;35993;52.604;10.078;2023-08-24T01:45:33;101415.06;;;16.96;100.00
50103;BME280;35993;52.604;10.078;2023-08-24T01:48:01;101419.94;;;17.06;100.00
50103;BME280;35993;52.604;10.078;2023-08-24T01:50:30;101416.78;;;17.14;100.00
50103;BME280;35993;52.604;10.078;2023-08-24T01:52:57;101423.41;;;17.01;100.00
50103;BME280;35993;52.604;10.078;2023-08-24T01:55:23;101414.44;;;17.06;100.00
50103;BME280;35993;52.604;10.078;2023-08-24T01:57:50;101417.41;;;17.04;100.00
50103;BME280;35993;52.604;10.078;2023-08-24T02:00:16;101410.84;;;17.06;100.00
50103;BME280;35993;52.604;10.078;2023-08-24T02:02:46;101409.31;;;16.98;100.00
50103;BME280;35993;52.604;10.078;2023-08-24T02:05:12;101409.94;;;17.00;100.00
50103;BME280;35993;52.604;10.078;2023-08-24T02:07:39;101412.81;;;16.93;100.00
50103;BME280;35993;52.604;10.078;2023-08-24T02:10:07;101418.31;;;16.93;100.00
50103;BME280;35993;52.604;10.078;2023-08-24T02:12:33;101408.28;;;16.87;100.00
50103;BME280;35993;52.604;10.078;2023-08-24T02:14:58;101409.34;;;16.86;100.00
50103;BME280;35993;52.604;10.078;2023-08-24T02:17:26;101402.78;;;16.87;100.00
50103;BME280;35993;52.604;10.078;2023-08-24T02:19:51;101397.75;;;16.84;100.00
50103;BME280;35993;52.604;10.078;2023-08-24T02:22:19;101390.88;;;16.81;100.00
50103;BME280;35993;52.604;10.078;2023-08-24T02:24:48;101391.72;;;16.82;100.00
50103;BME280;35993;52.604;10.078;2023-08-24T02:27:14;101385.16;;;16.71;100.00
50103;BME280;35993;52.604;10.078;2023-08-24T02:29:40;101390.44;;;16.61;100.00
50103;BME280;35993;52.604;10.078;2023-08-24T02:32:05;101381.84;;;16.57;100.00
50103;BME280;35993;52.604;10.078;2023-08-24T02:34:32;101383.41;;;16.53;100.00
50103;BME280;35993;52.604;10.078;2023-08-24T02:36:57;101377.09;;;16.52;100.00
50103;BME280;35993;52.604;10.078;2023-08-24T02:39:23;101380.91;;;16.51;100.00
50103;BME280;35993;52.604;10.078;2023-08-24T02:41:49;101385.91;;;16.54;100.00
50103;BME280;35993;52.604;10.078;2023-08-24T02:44:15;101389.38;;;16.62;100.00
50103;BME280;35993;52.604;10.078;2023-08-24T02:46:44;101387.22;;;16.64;100.00
50103;BME280;35993;52.604;10.078;2023-08-24T02:49:10;101386.00;;;16.60;100.00
50103;BME280;35993;52.604;10.078;2023-08-24T02:51:37;101389.63;;;16.48;100.00
50103;BME280;35993;52.604;10.078;2023-08-24T02:54:04;101380.94;;;16.40;100.00
50103;BME280;35993;52.604;10.078;2023-08-24T02:56:30;101380.34;;;16.37;100.00
50103;BME280;35993;52.604;10.078;2023-08-24T02:58:56;101373.78;;;16.38;100.00
50103;BME280;35993;52.604;10.078;2023-08-24T03:01:22;101375.56;;;16.45;100.00
50103;BME280;35993;52.604;10.078;2023-08-24T03:03:50;101374.72;;;16.44;100.00
50103;BME280;35993;52.604;10.078;2023-08-24T03:06:15;101371.03;;;16.38;100.00
50103;BME280;35993;52.604;10.078;2023-08-24T03:08:41;101377.34;;;16.39;100.00
50103;BME280;35993;52.604;10.078;2023-08-24T03:11:06;101371.03;;;16.38;100.00
50103;BME280;35993;52.604;10.078;2023-08-24T03:13:36;101376.88;;;16.30;100.00
50103;BME280;35993;52.604;10.078;2023-08-24T03:16:05;101377.38;;;16.27;100.00
50103;BME280;35993;52.604;10.078;2023-08-24T03:18:32;101373.91;;;16.20;100.00
50103;BME280;35993;52.604;10.078;2023-08-24T03:20:57;101379.25;;;16.15;100.00
50103;BME280;35993;52.604;10.078;2023-08-24T03:23:23;101372.72;;;16.16;100.00
50103;BME280;35993;52.604;10.078;2023-08-24T03:25:50;101371.78;;;16.10;100.00
50103;BME280;35993;52.604;10.078;2023-08-24T03:28:16;101376.41;;;16.10;100.00
50103;BME280;35993;52.604;10.078;2023-08-24T03:30:52;101381.63;;;16.11;100.00
50103;BME280;35993;52.604;10.078;2023-08-24T03:33:19;101376.28;;;16.04;100.00
50103;BME280;35993;52.604;10.078;2023-08-24T03:35:45;101373.31;;;15.94;100.00
50103;BME280;35993;52.604;10.078;2023-08-24T03:38:13;101370.06;;;15.85;100.00
50103;BME280;35993;52.604;10.078;2023-08-24T03:40:47;101373.84;;;15.72;100.00
50103;BME280;35993;52.604;10.078;2023-08-24T03:43:13;101361.22;;;15.71;100.00
50103;BME280;35993;52.604;10.078;2023-08-24T03:45:41;101363.63;;;15.68;100.00
50103;BME280;35993;52.604;10.078;2023-08-24T03:48:07;101361.69;;;15.68;100.00
50103;BME280;35993;52.604;10.078;2023-08-24T03:50:33;101360.25;;;15.66;100.00
50103;BME280;35993;52.604;10.078;2023-08-24T03:52:58;101360.25;;;15.66;100.00
50103;BME280;35993;52.604;10.078;2023-08-24T03:55:24;101357.53;;;15.66;100.00
50103;BME280;35993;52.604;10.078;2023-08-24T03:57:49;101365.88;;;15.71;100.00
50103;BME280;35993;52.604;10.078;2023-08-24T04:00:16;101366.13;;;15.69;100.00
50103;BME280;35993;52.604;10.078;2023-08-24T04:02:42;101366.81;;;15.77;100.00
50103;BME280;35993;52.604;10.078;2023-08-24T04:05:15;101365.50;;;15.79;100.00
50103;BME280;35993;52.604;10.078;2023-08-24T04:07:43;101367.16;;;15.68;100.00
50103;BME280;35993;52.604;10.078;2023-08-24T04:10:08;101364.50;;;15.50;100.00
50103;BME280;35993;52.604;10.078;2023-08-24T04:12:37;101369.31;;;15.66;100.00
50103;BME280;35993;52.604;10.078;2023-08-24T04:15:03;101374.81;;;15.78;100.00
50103;BME280;35993;52.604;10.078;2023-08-24T04:17:31;101376.66;;;15.84;100.00
50103;BME280;35993;52.604;10.078;2023-08-24T04:19:57;101395.09;;;15.89;100.00
50103;BME280;35993;52.604;10.078;2023-08-24T04:22:23;101400.81;;;15.87;100.00
50103;BME280;35993;52.604;10.078;2023-08-24T04:24:49;101396.28;;;15.93;100.00
50103;BME280;35993;52.604;10.078;2023-08-24T04:27:15;101407.13;;;16.00;100.00
50103;BME280;35993;52.604;10.078;2023-08-24T04:29:41;101403.78;;;15.98;100.00
50103;BME280;35993;52.604;10.078;2023-08-24T04:32:07;101408.19;;;15.99;100.00
50103;BME280;35993;52.604;10.078;2023-08-24T04:34:33;101401.41;;;16.01;100.00
50103;BME280;35993;52.604;10.078;2023-08-24T04:36:59;101400.00;;;15.99;100.00
50103;BME280;35993;52.604;10.078;2023-08-24T04:39:25;101399.88;;;15.94;100.00
50103;BME280;35993;52.604;10.078;2023-08-24T04:41:51;101400.34;;;16.02;100.00
50103;BME280;35993;52.604;10.078;2023-08-24T04:44:17;101402.47;;;16.00;100.00
50103;BME280;35993;52.604;10.078;2023-08-24T04:46:43;101402.97;;;15.97;100.00
50103;BME280;35993;52.604;10.078;2023-08-24T04:49:08;101412.00;;;15.98;100.00
50103;BME280;35993;52.604;10.078;2023-08-24T04:51:34;101411.19;;;16.09;100.00
50103;BME280;35993;52.604;10.078;2023-08-24T04:54:00;101419.03;;;16.05;100.00
50103;BME280;35993;52.604;10.078;2023-08-24T04:56:26;101416.66;;;15.97;100.00
50103;BME280;35993;52.604;10.078;2023-08-24T04:58:52;101425.72;;;15.79;100.00
50103;BME280;35993;52.604;10.078;2023-08-24T05:01:19;101426.13;;;15.83;100.00
50103;BME280;35993;52.604;10.078;2023-08-24T05:03:45;101418.91;;;16.00;100.00
50103;BME280;35993;52.604;10.078;2023-08-24T05:06:13;101427.03;;;16.19;100.00
50103;BME280;35993;52.604;10.078;2023-08-24T05:08:39;101433.47;;;16.36;100.00
50103;BME280;35993;52.604;10.078;2023-08-24T05:11:18;101424.06;;;16.44;100.00
50103;BME280;35993;52.604;10.078;2023-08-24T05:13:45;101421.91;;;16.46;100.00
50103;BME280;35993;52.604;10.078;2023-08-24T05:16:12;101414.06;;;16.50;100.00
50103;BME280;35993;52.604;10.078;2023-08-24T05:18:40;101405.94;;;16.55;100.00
50103;BME280;35993;52.604;10.078;2023-08-24T05:21:06;101394.25;;;16.48;100.00
50103;BME280;35993;52.604;10.078;2023-08-24T05:23:33;101396.88;;;16.43;100.00
50103;BME280;35993;52.604;10.078;2023-08-24T05:25:59;101411.28;;;16.38;100.00
50103;BME280;35993;52.604;10.078;2023-08-24T05:28:29;101416.31;;;16.41;100.00
50103;BME280;35993;52.604;10.078;2023-08-24T05:30:56;101412.13;;;16.50;100.00
50103;BME280;35993;52.604;10.078;2023-08-24T05:33:23;101410.25;;;16.51;100.00
50103;BME280;35993;52.604;10.078;2023-08-24T05:35:50;101406.53;;;16.45;100.00
50103;BME280;35993;52.604;10.078;2023-08-24T05:38:18;101399.75;;;16.48;100.00
50103;BME280;35993;52.604;10.078;2023-08-24T05:40:46;101397.59;;;16.50;100.00
50103;BME280;35993;52.604;10.078;2023-08-24T05:43:13;101406.53;;;16.57;100.00
50103;BME280;35993;52.604;10.078;2023-08-24T05:45:40;101406.63;;;16.62;100.00
50103;BME280;35993;52.604;10.078;2023-08-24T05:48:06;101411.66;;;16.65;100.00
50103;BME280;35993;52.604;10.078;2023-08-24T05:50:33;101401.84;;;16.69;100.00
50103;BME280;35993;52.604;10.078;2023-08-24T05:53:02;101397.09;;;16.77;100.00
50103;BME280;35993;52.604;10.078;2023-08-24T05:55:28;101396.25;;;16.76;100.00
50103;BME280;35993;52.604;10.078;2023-08-24T05:57:54;101400.91;;;16.76;100.00
50103;BME280;35993;52.604;10.078;2023-08-24T06:00:20;101403.03;;;16.74;100.00
50103;BME280;35993;52.604;10.078;2023-08-24T06:02:48;101399.22;;;16.75;100.00
50103;BME280;35993;52.604;10.078;2023-08-24T06:05:14;101408.28;;;16.75;100.00
50103;BME280;35993;52.604;10.078;2023-08-24T06:07:40;101404.56;;;16.81;100.00
50103;BME280;35993;52.604;10.078;2023-08-24T06:10:06;101394.69;;;16.80;100.00
50103;BME280;35993;52.604;10.078;2023-08-24T06:12:33;101381.81;;;16.81;100.00
50103;BME280;35993;52.604;10.078;2023-08-24T06:14:59;101374.41;;;16.81;100.00
50103;BME280;35993;52.604;10.078;2023-08-24T06:17:30;101380.25;;;16.85;100.00
50103;BME280;35993;52.604;10.078;2023-08-24T06:19:56;101404.91;;;16.85;100.00
50103;BME280;35993;52.604;10.078;2023-08-24T06:22:22;101405.53;;;16.99;100.00
50103;BME280;35993;52.604;10.078;2023-08-24T06:24:48;101399.22;;;16.98;100.00
50103;BME280;35993;52.604;10.078;2023-08-24T06:27:15;101394.28;;;17.00;100.00
50103;BME280;35993;52.604;10.078;2023-08-24T06:29:42;101390.84;;;17.05;100.00
50103;BME280;35993;52.604;10.078;2023-08-24T06:32:08;101389.47;;;17.19;100.00
50103;BME280;35993;52.604;10.078;2023-08-24T06:34:33;101381.91;;;17.27;100.00
50103;BME280;35993;52.604;10.078;2023-08-24T06:37:01;101379.53;;;17.30;100.00
50103;BME280;35993;52.604;10.078;2023-08-24T06:39:27;101377.25;;;17.27;100.00
50103;BME280;35993;52.604;10.078;2023-08-24T06:41:53;101371.59;;;17.34;100.00
50103;BME280;35993;52.604;10.078;2023-08-24T06:44:24;101366.97;;;17.34;100.00
50103;BME280;35993;52.604;10.078;2023-08-24T06:46:51;101365.03;;;17.35;100.00
50103;BME280;35993;52.604;10.078;2023-08-24T06:49:16;101370.63;;;17.40;100.00
50103;BME280;35993;52.604;10.078;2023-08-24T06:51:43;101368.91;;;17.51;100.00
50103;BME280;35993;52.604;10.078;2023-08-24T06:54:11;101363.78;;;17.72;100.00
50103;BME280;35993;52.604;10.078;2023-08-24T06:56:37;101357.69;;;17.87;100.00
50103;BME280;35993;52.604;10.078;2023-08-24T06:59:03;101351.06;;;17.99;100.00
50103;BME280;35993;52.604;10.078;2023-08-24T07:01:28;101355.63;;;18.11;100.00
50103;BME280;35993;52.604;10.078;2023-08-24T07:03:54;101345.94;;;18.25;100.00
50103;BME280;35993;52.604;10.078;2023-08-24T07:06:20;101337.38;;;18.44;100.00
50103;BME280;35993;52.604;10.078;2023-08-24T07:08:46;101340.03;;;18.56;100.00
50103;BME280;35993;52.604;10.078;2023-08-24T07:11:11;101343.53;;;18.73;100.00
50103;BME280;35993;52.604;10.078;2023-08-24T07:13:39;101342.72;;;18.95;100.00
50103;BME280;35993;52.604;10.078;2023-08-24T07:16:05;101345.06;;;19.08;100.00
50103;BME280;35993;52.604;10.078;2023-08-24T07:18:31;101345.94;;;19.14;100.00
50103;BME280;35993;52.604;10.078;2023-08-24T07:20:57;101342.91;;;19.15;99.25
50103;BME280;35993;52.604;10.078;2023-08-24T07:23:24;101347.06;;;19.18;99.67
50103;BME280;35993;52.604;10.078;2023-08-24T07:25:50;101351.34;;;19.31;100.00
50103;BME280;35993;52.604;10.078;2023-08-24T07:28:16;101342.94;;;19.43;99.79
50103;BME280;35993;52.604;10.078;2023-08-24T07:30:42;101344.72;;;19.59;100.00
50103;BME280;35993;52.604;10.078;2023-08-24T07:33:07;101344.81;;;19.70;100.00
50103;BME280;35993;52.604;10.078;2023-08-24T07:35:33;101343.72;;;19.71;97.91
50103;BME280;35993;52.604;10.078;2023-08-24T07:37:59;101332.00;;;19.86;98.35
50103;BME280;35993;52.604;10.078;2023-08-24T07:40:28;101321.75;;;19.81;97.30
50103;BME280;35993;52.604;10.078;2023-08-24T07:42:53;101322.72;;;19.97;98.12
50103;BME280;35993;52.604;10.078;2023-08-24T07:45:21;101319.22;;;20.12;98.08
50103;BME280;35993;52.604;10.078;2023-08-24T07:47:46;101319.63;;;20.36;97.15
50103;BME280;35993;52.604;10.078;2023-08-24T07:50:12;101318.28;;;20.44;94.86
50103;BME280;35993;52.604;10.078;2023-08-24T07:52:38;101316.66;;;20.53;92.25
50103;BME280;35993;52.604;10.078;2023-08-24T07:55:05;101307.91;;;20.61;92.09
50103;BME280;35993;52.604;10.078;2023-08-24T07:57:38;101305.41;;;20.65;92.61
50103;BME280;35993;52.604;10.078;2023-08-24T08:00:05;101303.56;;;20.76;92.43
50103;BME280;35993;52.604;10.078;2023-08-24T08:02:38;101309.38;;;20.90;92.21
50103;BME280;35993;52.604;10.078;2023-08-24T08:05:04;101321.56;;;21.04;91.69
50103;BME280;35993;52.604;10.078;2023-08-24T08:07:31;101317.13;;;20.98;89.61
50103;BME280;35993;52.604;10.078;2023-08-24T08:09:58;101314.34;;;20.88;89.50
50103;BME280;35993;52.604;10.078;2023-08-24T08:12:23;101309.88;;;20.76;88.99
50103;BME280;35993;52.604;10.078;2023-08-24T08:14:49;101308.00;;;20.87;89.88
50103;BME280;35993;52.604;10.078;2023-08-24T08:17:15;101308.53;;;20.84;89.54
50103;BME280;35993;52.604;10.078;2023-08-24T08:19:41;101312.19;;;21.05;92.04
50103;BME280;35993;52.604;10.078;2023-08-24T08:22:07;101315.78;;;21.26;90.27
50103;BME280;35993;52.604;10.078;2023-08-24T08:24:33;101311.94;;;21.27;90.10
50103;BME280;35993;52.604;10.078;2023-08-24T08:26:58;101316.63;;;21.42;89.32
50103;BME280;35993;52.604;10.078;2023-08-24T08:29:24;101310.53;;;21.30;88.80
50103;BME280;35993;52.604;10.078;2023-08-24T08:31:50;101303.91;;;21.31;85.96
50103;BME280;35993;52.604;10.078;2023-08-24T08:34:17;101306.41;;;21.48;84.88
50103;BME280;35993;52.604;10.078;2023-08-24T08:36:43;101314.69;;;21.38;84.69
50103;BME280;35993;52.604;10.078;2023-08-24T08:39:08;101315.53;;;21.49;85.78
50103;BME280;35993;52.604;10.078;2023-08-24T08:41:42;101308.94;;;21.55;85.12
50103;BME280;35993;52.604;10.078;2023-08-24T08:44:13;101305.03;;;21.71;85.91
50103;BME280;35993;52.604;10.078;2023-08-24T08:46:42;101302.50;;;22.01;85.65
50103;BME280;35993;52.604;10.078;2023-08-24T08:49:09;101305.50;;;22.15;84.30
50103;BME280;35993;52.604;10.078;2023-08-24T08:51:36;101313.25;;;22.23;85.27
50103;BME280;35993;52.604;10.078;2023-08-24T08:54:04;101310.22;;;22.19;82.87
50103;BME280;35993;52.604;10.078;2023-08-24T08:56:32;101306.66;;;22.08;82.04
50103;BME280;35993;52.604;10.078;2023-08-24T08:58:59;101310.56;;;21.87;83.71
50103;BME280;35993;52.604;10.078;2023-08-24T09:01:27;101309.94;;;22.21;83.71
50103;BME280;35993;52.604;10.078;2023-08-24T09:03:54;101308.22;;;22.46;83.47
50103;BME280;35993;52.604;10.078;2023-08-24T09:06:22;101299.91;;;22.51;79.76
50103;BME280;35993;52.604;10.078;2023-08-24T09:08:49;101307.28;;;22.66;80.44
50103;BME280;35993;52.604;10.078;2023-08-24T09:11:17;101297.59;;;22.68;78.50
50103;BME280;35993;52.604;10.078;2023-08-24T09:13:45;101293.56;;;22.45;78.28
50103;BME280;35993;52.604;10.078;2023-08-24T09:16:12;101300.94;;;22.65;78.53
50103;BME280;35993;52.604;10.078;2023-08-24T09:18:45;101290.94;;;22.69;78.78
50103;BME280;35993;52.604;10.078;2023-08-24T09:21:13;101297.16;;;22.96;78.66
50103;BME280;35993;52.604;10.078;2023-08-24T09:23:44;101290.63;;;23.21;79.21
50103;BME280;35993;52.604;10.078;2023-08-24T09:26:12;101282.19;;;23.42;78.60
50103;BME280;35993;52.604;10.078;2023-08-24T09:28:42;101287.28;;;23.59;77.08
50103;BME280;35993;52.604;10.078;2023-08-24T09:31:07;101285.44;;;23.49;77.33
50103;BME280;35993;52.604;10.078;2023-08-24T09:33:33;101270.56;;;23.39;76.49
50103;BME280;35993;52.604;10.078;2023-08-24T09:36:01;101272.06;;;23.56;76.51
50103;BME280;35993;52.604;10.078;2023-08-24T09:38:27;101264.31;;;23.82;75.62
50103;BME280;35993;52.604;10.078;2023-08-24T09:40:54;101249.34;;;23.83;71.63
50103;BME280;35993;52.604;10.078;2023-08-24T09:43:20;101240.44;;;23.92;70.99
50103;BME280;35993;52.604;10.078;2023-08-24T09:45:54;101256.69;;;23.98;72.18
50103;BME280;35993;52.604;10.078;2023-08-24T09:48:20;101252.56;;;23.66;71.19
50103;BME280;35993;52.604;10.078;2023-08-24T09:50:48;101245.22;;;23.81;71.11
50103;BME280;35993;52.604;10.078;2023-08-24T09:53:19;101242.09;;;23.87;71.28
50103;BME280;35993;52.604;10.078;2023-08-24T09:55:54;101225.88;;;23.76;69.81
50103;BME280;35993;52.604;10.078;2023-08-24T09:58:22;101207.69;;;23.88;67.46
50103;BME280;35993;52.604;10.078;2023-08-24T10:00:48;101218.09;;;23.78;69.85
50103;BME280;35993;52.604;10.078;2023-08-24T10:03:24;101215.19;;;23.88;69.66
50103;BME280;35993;52.604;10.078;2023-08-24T10:05:57;101212.97;;;24.14;70.16
50103;BME280;35993;52.604;10.078;2023-08-24T10:08:29;101199.94;;;24.15;70.46
50103;BME280;35993;52.604;10.078;2023-08-24T10:10:56;101195.53;;;24.33;70.06
50103;BME280;35993;52.604;10.078;2023-08-24T10:13:48;101193.97;;;24.46;68.79
50103;BME280;35993;52.604;10.078;2023-08-24T10:16:16;101206.41;;;24.48;69.73
50103;BME280;35993;52.604;10.078;2023-08-24T10:18:43;101210.91;;;24.63;70.00
50103;BME280;35993;52.604;10.078;2023-08-24T10:21:09;101196.28;;;24.58;69.97
50103;BME280;35993;52.604;10.078;2023-08-24T10:23:37;101188.78;;;24.39;69.57
50103;BME280;35993;52.604;10.078;2023-08-24T10:26:06;101180.31;;;24.49;68.98
50103;BME280;35993;52.604;10.078;2023-08-24T10:28:32;101170.19;;;24.59;69.16
50103;BME280;35993;52.604;10.078;2023-08-24T10:31:02;101148.47;;;24.66;66.34
50103;BME280;35993;52.604;10.078;2023-08-24T10:33:29;101149.06;;;24.96;66.72
50103;BME280;35993;52.604;10.078;2023-08-24T10:35:55;101151.63;;;24.92;66.75
50103;BME280;35993;52.604;10.078;2023-08-24T10:38:23;101144.03;;;24.98;64.28
50103;BME280;35993;52.604;10.078;2023-08-24T10:40:54;101144.38;;;25.10;63.80
50103;BME280;35993;52.604;10.078;2023-08-24T10:43:22;101137.16;;;24.95;63.91
50103;BME280;35993;52.604;10.078;2023-08-24T10:45:54;101138.81;;;24.96;63.20
50103;BME280;35993;52.604;10.078;2023-08-24T10:48:36;101136.44;;;25.03;62.64
50103;BME280;35993;52.604;10.078;2023-08-24T10:51:23;101129.47;;;25.20;63.19
50103;BME280;35993;52.604;10.078;2023-08-24T10:54:01;101137.13;;;25.28;64.67
50103;BME280;35993;52.604;10.078;2023-08-24T10:56:34;101138.63;;;25.34;64.76
50103;BME280;35993;52.604;10.078;2023-08-24T10:59:14;101132.44;;;25.57;64.63
50103;BME280;35993;52.604;10.078;2023-08-24T11:01:54;101122.44;;;25.56;62.94
50103;BME280;35993;52.604;10.078;2023-08-24T11:04:20;101108.31;;;25.52;62.71
50103;BME280;35993;52.604;10.078;2023-08-24T11:06:52;101117.69;;;25.56;63.10
50103;BME280;35993;52.604;10.078;2023-08-24T11:09:18;101114.00;;;25.61;61.23
50103;BME280;35993;52.604;10.078;2023-08-24T11:12:01;101106.19;;;25.63;60.88
50103;BME280;35993;52.604;10.078;2023-08-24T11:14:27;101103.50;;;25.58;59.88
50103;BME280;35993;52.604;10.078;2023-08-24T11:17:00;101108.97;;;25.63;61.03
50103;BME280;35993;52.604;10.078;2023-08-24T11:19:29;101093.91;;;25.64;59.46
50103;BME280;35993;52.604;10.078;2023-08-24T11:21:55;101099.56;;;25.73;59.61
50103;BME280;35993;52.604;10.078;2023-08-24T11:24:21;101124.19;;;25.65;61.50
50103;BME280;35993;52.604;10.078;2023-08-24T11:26:48;101120.28;;;25.52;58.88
50103;BME280;35993;52.604;10.078;2023-08-24T11:29:14;101121.09;;;25.53;60.83
50103;BME280;35993;52.604;10.078;2023-08-24T11:31:43;101103.28;;;25.54;60.12
50103;BME280;35993;52.604;10.078;2023-08-24T11:34:10;101112.53;;;25.63;61.14
50103;BME280;35993;52.604;10.078;2023-08-24T11:37:02;101118.94;;;25.50;61.32
50103;BME280;35993;52.604;10.078;2023-08-24T11:39:27;101109.88;;;25.58;59.44
50103;BME280;35993;52.604;10.078;2023-08-24T11:42:05;101099.97;;;25.66;59.98
50103;BME280;35993;52.604;10.078;2023-08-24T11:44:49;101070.22;;;25.66;58.08
50103;BME280;35993;52.604;10.078;2023-08-24T11:47:15;101073.09;;;25.75;59.72
50103;BME280;35993;52.604;10.078;2023-08-24T11:49:41;101077.63;;;25.85;57.93
50103;BME280;35993;52.604;10.078;2023-08-24T11:52:08;101083.34;;;26.03;59.60
50103;BME280;35993;52.604;10.078;2023-08-24T11:54:34;101061.50;;;26.10;58.80
50103;BME280;35993;52.604;10.078;2023-08-24T11:56:59;101048.63;;;26.14;57.32
50103;BME280;35993;52.604;10.078;2023-08-24T11:59:25;101045.41;;;26.21;57.04
50103;BME280;35993;52.604;10.078;2023-08-24T12:01:52;101027.50;;;26.13;56.63
50103;BME280;35993;52.604;10.078;2023-08-24T12:04:18;101031.84;;;26.05;57.85
50103;BME280;35993;52.604;10.078;2023-08-24T12:06:44;101037.00;;;25.98;58.36
50103;BME280;35993;52.604;10.078;2023-08-24T12:09:10;101027.34;;;25.81;59.09
50103;BME280;35993;52.604;10.078;2023-08-24T12:11:36;101030.78;;;26.01;59.55
50103;BME280;35993;52.604;10.078;2023-08-24T12:14:02;101026.59;;;26.26;59.16
50103;BME280;35993;52.604;10.078;2023-08-24T12:16:31;101026.78;;;26.53;59.05
50103;BME280;35993;52.604;10.078;2023-08-24T12:18:59;101002.56;;;26.53;56.88
50103;BME280;35993;52.604;10.078;2023-08-24T12:21:26;101016.59;;;26.48;58.85
50103;BME280;35993;52.604;10.078;2023-08-24T12:23:58;101014.22;;;26.32;56.99
50103;BME280;35993;52.604;10.078;2023-08-24T12:26:27;101015.16;;;26.28;58.26
50103;BME280;35993;52.604;10.078;2023-08-24T12:28:59;100999.72;;;26.44;57.82
50103;BME280;35993;52.604;10.078;2023-08-24T12:31:27;100982.59;;;26.51;56.73
50103;BME280;35993;52.604;10.078;2023-08-24T12:34:14;100977.38;;;26.36;56.14
50103;BME280;35993;52.604;10.078;2023-08-24T12:36:41;100967.72;;;26.33;56.77
50103;BME280;35993;52.604;10.078;2023-08-24T12:39:11;100981.16;;;26.31;58.62